Time;durP1;ratioP1;P1;durP2;ratioP2;P2;SDS_P1;SDS_P2;PMS_P1;PMS_P2;Temp;Humidity;BMP_temperature;BMP_pressure;BME280_temperature;BME280_humidity;BME280_pressure;Samples;Min_cycle;Max_cycle;Signal;HPM_P1;HPM_P2
2023/10/18 00:01:25;;;;;;;7.15;3.80;;;;;;;12.68;100.00;103709.19;5012715;28;20064;-70
2023/10/18 00:03:56;;;;;;;6.80;3.92;;;;;;;12.82;100.00;103704.41;5021138;28;20034;-70
2023/10/18 00:06:23;;;;;;;7.43;3.70;;;;;;;12.70;100.00;103665.81;5022796;28;20038;-70
2023/10/18 00:08:57;;;;;;;5.95;3.75;;;;;;;12.73;100.00;103635.25;5022132;28;20049;-70
2023/10/18 00:11:24;;;;;;;7.60;3.75;;;;;;;12.46;100.00;103611.69;5013125;28;20454;-70
2023/10/18 00:13:50;;;;;;;5.80;3.60;;;;;;;12.07;100.00;103538.47;5008657;28;20424;-71
2023/10/18 00:16:17;;;;;;;6.63;3.80;;;;;;;12.62;100.00;103621.38;5009245;28;20497;-70
2023/10/18 00:18:42;;;;;;;7.43;3.80;;;;;;;12.53;100.00;103619.50;5010792;28;20742;-70
2023/10/18 00:21:08;;;;;;;5.38;3.35;;;;;;;12.51;100.00;103633.91;5010456;28;20623;-70
2023/10/18 00:23:34;;;;;;;6.00;3.33;;;;;;;12.35;100.00;103611.41;5008725;28;20033;-71
2023/10/18 00:26:09;;;;;;;7.93;3.67;;;;;;;12.25;100.00;103636.66;5010635;28;20112;-71
2023/10/18 00:28:38;;;;;;;5.18;3.22;;;;;;;12.15;100.00;103659.41;5009682;28;20041;-71
2023/10/18 00:31:16;;;;;;;6.65;3.55;;;;;;;12.38;100.00;103726.31;5010695;28;20057;-71
2023/10/18 00:33:43;;;;;;;7.05;3.47;;;;;;;12.46;100.00;103764.81;5007891;28;20037;-70
2023/10/18 00:36:10;;;;;;;5.63;3.20;;;;;;;12.34;100.00;103759.41;5010455;28;20444;-70
2023/10/18 00:38:38;;;;;;;4.95;3.13;;;;;;;11.97;100.00;103681.91;5010906;28;20109;-71
2023/10/18 00:41:07;;;;;;;4.18;2.72;;;;;;;12.18;100.00;103720.72;5010133;28;20030;-71
2023/10/18 00:43:33;;;;;;;5.88;2.70;;;;;;;12.06;100.00;103728.03;5009491;28;20132;-71
2023/10/18 00:45:59;;;;;;;5.68;2.63;;;;;;;12.31;100.00;103778.03;5008902;28;20030;-70
2023/10/18 00:48:29;;;;;;;4.15;2.38;;;;;;;12.54;100.00;103796.53;5008603;28;20054;-70
2023/10/18 00:50:56;;;;;;;3.88;2.50;;;;;;;12.49;100.00;103796.38;5009512;28;20033;-70
2023/10/18 00:53:26;;;;;;;4.95;2.53;;;;;;;12.13;100.00;103744.38;5009796;28;20033;-69
2023/10/18 00:55:57;;;;;;;4.43;2.42;;;;;;;12.56;100.00;103815.25;5008356;28;20091;-70
2023/10/18 00:58:23;;;;;;;4.95;2.70;;;;;;;12.50;100.00;103810.03;5008140;28;20030;-70
2023/10/18 01:00:50;;;;;;;5.45;3.08;;;;;;;12.62;100.00;103835.84;5008172;28;20022;-71
2023/10/18 01:03:28;;;;;;;5.65;2.80;;;;;;;12.04;100.00;103747.53;5008643;28;20030;-69
2023/10/18 01:06:07;;;;;;;4.05;2.67;;;;;;;12.57;100.00;103866.38;5009829;28;20092;-71
2023/10/18 01:08:36;;;;;;;4.72;3.08;;;;;;;12.49;100.00;103872.09;5009643;28;20033;-71
2023/10/18 01:11:04;;;;;;;4.20;2.97;;;;;;;12.36;100.00;103896.41;5009926;28;20069;-71
2023/10/18 01:13:40;;;;;;;6.05;3.10;;;;;;;12.56;100.00;103925.91;5013725;28;20504;-70
2023/10/18 01:16:09;;;;;;;7.13;3.40;;;;;;;12.51;100.00;103931.72;5018643;28;20028;-72
2023/10/18 01:18:35;;;;;;;9.32;3.15;;;;;;;12.59;100.00;103902.16;5015079;28;20034;-72
2023/10/18 01:21:13;;;;;;;6.47;3.20;;;;;;;12.62;100.00;103909.88;5018340;28;20041;-71
2023/10/18 01:23:40;;;;;;;4.43;3.28;;;;;;;12.29;100.00;103858.81;5008309;28;20038;-71
2023/10/18 01:26:08;;;;;;;4.28;3.10;;;;;;;12.39;100.00;103865.88;5021491;28;20076;-71
2023/10/18 01:28:34;;;;;;;7.15;3.08;;;;;;;12.53;100.00;103910.53;5017299;28;20022;-72
2023/10/18 01:30:59;;;;;;;6.30;3.78;;;;;;;12.62;100.00;103928.63;5010610;28;20033;-71
2023/10/18 01:33:24;;;;;;;8.02;3.47;;;;;;;12.16;100.00;103946.03;5018021;28;20109;-71
2023/10/18 01:35:53;;;;;;;5.50;3.33;;;;;;;12.49;100.00;103903.59;5016017;28;20033;-71
2023/10/18 01:38:25;;;;;;;7.28;3.40;;;;;;;12.57;100.00;103077.56;5024570;28;20028;-70
2023/10/18 01:40:53;;;;;;;5.30;3.10;;;;;;;12.37;100.00;103004.13;5019024;28;20102;-71
2023/10/18 01:43:19;;;;;;;5.63;3.17;;;;;;;12.62;100.00;103088.69;5016974;28;20030;-71
2023/10/18 01:45:48;;;;;;;7.40;3.55;;;;;;;12.57;100.00;103051.19;5022691;28;20092;-70
2023/10/18 01:48:17;;;;;;;5.85;3.47;;;;;;;12.67;100.00;103055.56;5017951;28;20495;-70
2023/10/18 01:50:46;;;;;;;7.13;3.08;;;;;;;12.46;100.00;102999.16;5017707;28;20029;-70
2023/10/18 01:53:21;;;;;;;6.40;3.33;;;;;;;12.29;100.00;102717.44;5022627;28;20157;-71
2023/10/18 01:55:53;;;;;;;6.43;3.58;;;;;;;12.52;100.00;102695.53;5016287;28;20026;-71
2023/10/18 01:58:26;;;;;;;7.70;3.55;;;;;;;12.34;100.00;102514.25;5008525;28;20022;-70
2023/10/18 02:00:54;;;;;;;4.05;3.30;;;;;;;12.34;100.00;102493.84;5008931;28;20037;-70
2023/10/18 02:03:20;;;;;;;10.23;3.72;;;;;;;12.18;100.00;102426.59;5018978;28;20112;-71
2023/10/18 02:05:47;;;;;;;7.40;3.65;;;;;;;12.21;100.00;102408.72;5019095;28;20037;-72
2023/10/18 02:08:12;;;;;;;5.25;3.45;;;;;;;12.58;100.00;102436.09;5009175;28;20384;-71
2023/10/18 02:10:40;;;;;;;8.27;3.85;;;;;;;12.62;100.00;102388.44;5014774;28;20053;-71
2023/10/18 02:13:08;;;;;;;7.60;4.15;;;;;;;12.67;100.00;102357.00;5014086;28;20046;-72
2023/10/18 02:15:35;;;;;;;7.78;3.47;;;;;;;12.61;100.00;102300.84;5008749;28;20030;-71
2023/10/18 02:18:00;;;;;;;7.80;3.42;;;;;;;12.53;100.00;102332.31;5019401;28;20091;-71
2023/10/18 02:20:26;;;;;;;7.22;3.53;;;;;;;12.67;100.00;102272.78;5020776;28;20026;-72
2023/10/18 02:22:59;;;;;;;7.05;3.90;;;;;;;12.78;100.00;102272.75;5018004;28;20045;-72
2023/10/18 02:28:22;;;;;;;7.20;3.47;;;;;;;11.96;100.00;102129.88;5021086;28;20037;-71
2023/10/18 02:31:10;;;;;;;6.55;3.28;;;;;;;12.75;100.00;102324.69;5015700;28;20053;-70
2023/10/18 02:33:44;;;;;;;4.25;3.80;;;;;;;12.35;100.00;102228.53;5010859;28;20029;-73
2023/10/18 02:36:11;;;;;;;9.20;3.88;;;;;;;12.45;100.00;102206.41;5023898;28;20037;-73
2023/10/18 02:38:41;;;;;;;5.60;4.13;;;;;;;12.66;100.00;102206.41;5020865;28;20116;-73
2023/10/18 02:41:26;;;;;;;7.05;4.22;;;;;;;12.40;100.00;102221.72;5009598;28;20163;-73
2023/10/18 02:43:55;;;;;;;5.43;3.85;;;;;;;12.79;100.00;102473.59;5020903;28;20025;-73
2023/10/18 02:46:25;;;;;;;5.57;4.25;;;;;;;12.45;100.00;102431.81;5019562;28;20037;-72
2023/10/18 02:48:57;;;;;;;8.23;5.47;;;;;;;12.68;100.00;102493.97;5014969;28;20025;-73
2023/10/18 02:51:24;;;;;;;11.38;6.75;;;;;;;12.89;100.00;102470.25;5023019;28;20026;-73
2023/10/18 02:53:51;;;;;;;12.93;7.60;;;;;;;12.73;100.00;102389.34;5014621;28;20037;-73
2023/10/18 02:56:17;;;;;;;10.45;6.03;;;;;;;12.97;100.00;102394.50;5016871;28;20116;-73
2023/10/18 02:58:47;;;;;;;13.68;5.75;;;;;;;12.52;100.00;102328.88;5021249;28;20040;-70
2023/10/18 03:01:18;;;;;;;7.25;3.95;;;;;;;12.65;100.00;102398.69;5007214;28;20450;-71
2023/10/18 03:03:46;;;;;;;14.02;6.55;;;;;;;12.39;100.00;102296.56;5022371;28;20507;-71
2023/10/18 03:06:16;;;;;;;10.63;6.25;;;;;;;12.38;100.00;102248.91;5014986;28;20033;-70
2023/10/18 03:08:42;;;;;;;21.73;9.68;;;;;;;12.39;100.00;102173.25;5018171;28;20034;-70
2023/10/18 03:11:11;;;;;;;16.67;8.88;;;;;;;12.60;100.00;102150.25;5012182;28;20476;-72
2023/10/18 03:13:37;;;;;;;12.48;6.38;;;;;;;12.68;100.00;102149.41;5006054;28;20103;-73
2023/10/18 03:18:44;;;;;;;15.43;8.20;;;;;;;12.53;100.00;102116.28;5008293;28;20173;-73
2023/10/18 03:21:20;;;;;;;15.25;7.80;;;;;;;12.65;100.00;102018.41;5005160;28;20116;-73
2023/10/18 03:23:51;;;;;;;10.13;5.13;;;;;;;12.58;100.00;102017.56;5006797;28;20033;-73
2023/10/18 03:26:23;;;;;;;9.88;4.10;;;;;;;12.44;100.00;101954.72;5002977;28;20179;-72
2023/10/18 03:28:51;;;;;;;6.72;4.38;;;;;;;12.80;100.00;101993.66;5007824;28;20048;-71
2023/10/18 03:31:50;;;;;;;7.68;4.60;;;;;;;12.63;100.00;101926.56;5007911;28;20034;-73
2023/10/18 03:34:17;;;;;;;12.55;6.85;;;;;;;12.91;100.00;101980.88;5004443;28;20057;-73
2023/10/18 03:36:51;;;;;;;9.20;4.18;;;;;;;13.95;100.00;101980.09;5007576;28;20038;-72
2023/10/18 03:39:17;;;;;;;11.98;6.68;;;;;;;12.68;100.00;101870.38;5007424;28;20033;-71
2023/10/18 03:41:43;;;;;;;13.15;6.85;;;;;;;12.96;100.00;101908.47;5006291;28;20040;-71
2023/10/18 03:44:09;;;;;;;8.50;5.65;;;;;;;12.77;100.00;101873.72;5002146;28;20397;-71
2023/10/18 03:49:33;;;;;;;7.22;4.07;;;;;;;12.73;100.00;101787.84;5005989;28;20038;-69
2023/10/18 03:52:06;;;;;;;6.38;3.95;;;;;;;12.52;100.00;101724.19;5007181;28;20029;-71
2023/10/18 03:54:43;;;;;;;5.88;3.42;;;;;;;12.54;100.00;101658.69;5007550;28;20029;-71
2023/10/18 03:57:15;;;;;;;6.82;4.03;;;;;;;12.54;100.00;101614.47;5007435;28;20476;-71
2023/10/18 03:59:47;;;;;;;7.22;4.00;;;;;;;12.27;100.00;101590.06;5007518;28;20073;-71
2023/10/18 04:02:16;;;;;;;7.70;4.60;;;;;;;12.17;100.00;101512.81;5006248;28;20088;-70
2023/10/18 04:04:47;;;;;;;14.55;6.57;;;;;;;12.48;100.00;101531.19;5006750;28;20041;-70
2023/10/18 04:07:16;;;;;;;15.05;8.07;;;;;;;12.45;100.00;101540.56;5003955;28;20034;-70
2023/10/18 04:10:12;;;;;;;15.77;7.82;;;;;;;12.51;100.00;101471.63;5007286;28;20061;-71
2023/10/18 04:12:32;;;;;;;13.52;7.47;;;;;;;12.43;100.00;101447.94;5006527;28;20049;-72
2023/10/18 04:14:58;;;;;;;10.50;5.68;;;;;;;12.34;100.00;101423.34;5007853;28;20448;-73
2023/10/18 04:20:04;;;;;;;8.77;4.68;;;;;;;11.93;100.00;101415.34;5007365;28;20042;-72
2023/10/18 04:22:29;;;;;;;6.78;4.57;;;;;;;12.18;100.00;101414.22;5006409;28;20586;-72
2023/10/18 04:24:55;;;;;;;6.68;4.47;;;;;;;12.25;100.00;101399.69;5007807;28;20133;-72
2023/10/18 04:27:21;;;;;;;7.22;4.38;;;;;;;12.07;100.00;101360.81;5008090;28;20511;-73
2023/10/18 04:29:47;;;;;;;6.78;4.63;;;;;;;12.32;100.00;101435.28;5004553;28;20025;-72
2023/10/18 04:32:18;;;;;;;10.63;4.18;;;;;;;12.07;100.00;101358.25;5005026;28;20040;-73
2023/10/18 04:34:44;;;;;;;8.30;4.47;;;;;;;12.83;100.00;101390.41;5005908;28;20030;-73
2023/10/18 04:37:12;;;;;;;7.55;5.15;;;;;;;12.31;100.00;101229.59;5003331;28;20104;-72
2023/10/18 04:39:40;;;;;;;9.27;5.13;;;;;;;12.18;100.00;101137.16;5009398;28;20551;-73
2023/10/18 04:42:06;;;;;;;7.88;5.13;;;;;;;12.12;100.00;101131.31;5011054;28;20030;-73
2023/10/18 04:44:35;;;;;;;8.07;4.85;;;;;;;12.42;100.00;101156.31;5006481;28;20050;-72
2023/10/18 04:47:03;;;;;;;8.02;4.78;;;;;;;12.88;100.00;101148.69;5008723;28;20026;-69
2023/10/18 04:49:36;;;;;;;10.60;5.47;;;;;;;12.56;100.00;101135.66;5008716;28;20074;-69
2023/10/18 04:52:04;;;;;;;8.70;5.45;;;;;;;12.29;100.00;101085.13;5009279;28;20034;-69
2023/10/18 04:54:42;;;;;;;9.80;5.80;;;;;;;12.27;100.00;101049.47;5009522;28;20564;-69
2023/10/18 04:57:11;;;;;;;10.27;5.68;;;;;;;12.37;100.00;101050.16;5008797;28;20030;-68
2023/10/18 04:59:45;;;;;;;9.35;6.47;;;;;;;12.38;100.00;101062.03;5007625;28;20401;-69
2023/10/18 05:02:16;;;;;;;7.55;5.82;;;;;;;12.40;100.00;100979.50;5008974;28;20026;-69
2023/10/18 05:04:41;;;;;;;8.48;5.93;;;;;;;12.85;100.00;101057.72;5015622;28;20033;-69
2023/10/18 05:09:41;;;;;;;8.23;4.70;;;;;;;12.16;100.00;100937.47;5010386;28;20108;-69
2023/10/18 05:14:44;;;;;;;5.45;3.83;;;;;;;12.32;100.00;100973.72;5019841;28;20033;-69
2023/10/18 05:17:21;;;;;;;8.88;4.10;;;;;;;12.90;100.00;101038.03;5007825;28;20085;-69
2023/10/18 05:19:48;;;;;;;6.10;3.95;;;;;;;12.57;100.00;101042.97;5019973;28;20415;-69
2023/10/18 05:22:25;;;;;;;8.93;4.22;;;;;;;12.49;100.00;100983.59;5010835;28;20513;-69
2023/10/18 05:24:55;;;;;;;9.05;4.85;;;;;;;12.89;100.00;101051.66;5017685;28;20030;-69
2023/10/18 05:27:28;;;;;;;9.07;5.15;;;;;;;12.90;100.00;101062.72;5013875;28;20176;-69
2023/10/18 05:30:08;;;;;;;12.18;5.55;;;;;;;12.23;100.00;101001.09;5008568;28;20116;-69
2023/10/18 05:37:44;;;;;;;10.32;5.85;;;;;;;12.41;100.00;101010.97;5015460;28;20424;-69
2023/10/18 05:42:54;;;;;;;12.75;6.53;;;;;;;12.20;100.00;100935.75;5015034;28;21831;-71
2023/10/18 05:45:19;;;;;;;13.52;6.47;;;;;;;12.60;100.00;100996.97;5017795;28;20026;-71
2023/10/18 05:47:46;;;;;;;11.50;7.10;;;;;;;12.60;100.00;100986.78;5015965;28;20033;-69
2023/10/18 05:50:12;;;;;;;10.68;6.47;;;;;;;12.40;100.00;100964.22;5022628;28;20060;-71
2023/10/18 05:52:39;;;;;;;12.82;6.50;;;;;;;12.53;100.00;100931.66;5011783;28;20054;-71
2023/10/18 05:55:09;;;;;;;14.07;5.80;;;;;;;12.43;100.00;100943.78;5020428;28;20033;-69
2023/10/18 05:57:34;;;;;;;9.75;6.00;;;;;;;12.20;100.00;100920.44;5023906;28;20030;-70
2023/10/18 06:00:00;;;;;;;8.98;6.70;;;;;;;12.29;100.00;100930.44;5009897;28;20040;-69
2023/10/18 06:02:26;;;;;;;12.02;6.57;;;;;;;12.43;100.00;100948.03;5010490;28;20487;-69
2023/10/18 06:04:55;;;;;;;10.32;6.43;;;;;;;12.67;100.00;100970.50;5020768;28;20037;-68
2023/10/18 06:07:23;;;;;;;13.02;5.68;;;;;;;12.58;100.00;100886.47;5019099;28;20095;-69
2023/10/18 06:09:58;;;;;;;11.35;5.55;;;;;;;12.53;100.00;100876.41;5009533;28;20033;-69
2023/10/18 06:12:27;;;;;;;9.32;5.28;;;;;;;12.53;100.00;100842.38;5020442;28;20415;-69
2023/10/18 06:14:53;;;;;;;11.73;5.63;;;;;;;13.00;100.00;100888.09;5008223;28;20032;-71
2023/10/18 06:17:26;;;;;;;11.85;6.05;;;;;;;13.15;100.00;100915.84;5008724;28;20045;-71
2023/10/18 06:19:52;;;;;;;9.98;6.10;;;;;;;13.21;100.00;100940.41;5013340;28;20063;-71
2023/10/18 06:22:29;;;;;;;10.40;5.75;;;;;;;13.21;100.00;100930.19;5021158;28;20037;-71
2023/10/18 06:24:57;;;;;;;10.98;5.32;;;;;;;13.43;100.00;100944.13;5010476;28;20025;-68
2023/10/18 06:27:23;;;;;;;12.60;6.47;;;;;;;13.37;100.00;100917.00;5017815;28;20049;-69
2023/10/18 06:29:53;;;;;;;9.32;6.50;;;;;;;13.16;100.00;100927.72;5010172;28;20025;-69
2023/10/18 06:32:22;;;;;;;22.60;16.23;;;;;;;13.46;100.00;100997.69;5019856;28;20515;-69
2023/10/18 06:34:49;;;;;;;24.45;15.65;;;;;;;12.93;100.00;100943.53;5017120;28;20026;-68
2023/10/18 06:37:22;;;;;;;18.15;10.50;;;;;;;13.20;100.00;100972.75;5024464;28;20040;-69
2023/10/18 06:39:51;;;;;;;12.05;5.80;;;;;;;13.32;100.00;100975.03;5017783;28;20034;-70
2023/10/18 06:42:17;;;;;;;9.63;5.03;;;;;;;13.40;100.00;101039.56;5019172;28;20041;-69
2023/10/18 06:44:43;;;;;;;5.13;4.30;;;;;;;13.29;100.00;101004.91;5016377;28;20022;-69
2023/10/18 06:47:14;;;;;;;10.05;4.78;;;;;;;13.69;100.00;101051.66;5012453;28;20038;-69
2023/10/18 06:49:43;;;;;;;9.63;4.63;;;;;;;13.91;100.00;101076.69;5015550;28;20053;-69
2023/10/18 06:52:14;;;;;;;7.43;4.35;;;;;;;13.75;100.00;101059.16;5014362;28;20034;-68
2023/10/18 06:54:40;;;;;;;11.02;4.28;;;;;;;14.33;100.00;101107.22;5006408;28;20030;-69
2023/10/18 06:57:21;;;;;;;8.85;4.30;;;;;;;13.66;100.00;101026.19;5023673;28;20029;-68
2023/10/18 06:59:48;;;;;;;12.23;4.72;;;;;;;14.13;100.00;101151.16;5015677;28;20039;-69
2023/10/18 07:02:14;;;;;;;8.45;4.65;;;;;;;13.90;100.00;101069.06;5014147;28;20037;-69
2023/10/18 07:04:50;;;;;;;10.50;5.22;;;;;;;14.51;100.00;101165.63;5013401;28;20126;-69
2023/10/18 07:07:19;;;;;;;12.50;6.40;;;;;;;14.45;100.00;101224.63;5007866;28;20477;-69
2023/10/18 07:09:45;;;;;;;7.70;4.38;;;;;;;14.48;100.00;101232.25;5006289;28;20057;-70
2023/10/18 07:12:11;;;;;;;7.22;4.22;;;;;;;14.27;100.00;101166.19;5014255;28;20462;-71
2023/10/18 07:14:37;;;;;;;7.93;4.90;;;;;;;14.80;100.00;101293.72;5015682;28;20034;-70
2023/10/18 07:17:04;;;;;;;9.20;4.72;;;;;;;15.16;100.00;101359.44;5006505;28;20026;-68
2023/10/18 07:19:33;;;;;;;9.45;4.85;;;;;;;14.37;100.00;101431.22;5017366;28;20029;-70
2023/10/18 07:22:05;;;;;;;13.13;4.00;;;;;;;14.80;100.00;101630.91;5017731;28;20034;-68
2023/10/18 07:24:38;;;;;;;5.30;3.70;;;;;;;14.82;100.00;101767.41;5012288;28;20029;-69
2023/10/18 07:27:03;;;;;;;12.10;6.25;;;;;;;15.13;100.00;101928.28;5004922;28;20042;-68
2023/10/18 07:29:31;;;;;;;5.85;3.67;;;;;;;14.51;100.00;101994.91;5018900;28;20060;-69
2023/10/18 07:31:59;;;;;;;8.52;5.00;;;;;;;14.69;100.00;102133.81;5018723;28;20058;-69
2023/10/18 07:34:36;;;;;;;7.35;4.30;;;;;;;15.19;100.00;102328.00;5008473;28;20412;-69
2023/10/18 07:37:17;;;;;;;6.88;3.08;;;;;;;15.31;100.00;102463.75;5013345;28;20035;-68
2023/10/18 07:39:44;;;;;;;4.75;2.40;;;;;;;14.88;100.00;102530.63;5008708;28;20034;-69
2023/10/18 07:42:11;;;;;;;5.78;2.58;;;;;;;15.30;100.00;102689.34;5015339;28;20067;-68
2023/10/18 07:44:41;;;;;;;5.57;2.83;;;;;;;15.11;100.00;102706.53;5012015;28;20030;-70
2023/10/18 07:47:07;;;;;;;8.98;2.40;;;;;;;15.22;100.00;102873.94;5018219;28;20515;-68
2023/10/18 07:49:33;;;;;;;4.88;1.83;;;;;;;14.83;100.00;102791.97;5016401;28;20026;-69
2023/10/18 07:51:59;;;;;;;5.30;2.10;;;;;;;15.53;100.00;102978.25;5017781;28;20565;-68
2023/10/18 07:54:24;;;;;;;3.92;2.15;;;;;;;15.33;100.00;103077.34;5012369;28;20113;-68
2023/10/18 07:56:50;;;;;;;6.68;2.58;;;;;;;15.18;100.00;103148.22;5016441;28;20496;-67
2023/10/18 07:59:29;;;;;;;4.93;2.28;;;;;;;15.21;100.00;103218.28;5013089;28;20487;-68
2023/10/18 08:05:01;;;;;;;5.30;2.45;;;;;;;16.12;100.00;103382.97;4921221;29;20104;-68
2023/10/18 08:07:29;;;;;;;4.00;1.63;;;;;;;16.00;100.00;103567.75;4913915;29;20036;-68
2023/10/18 08:09:57;;;;;;;3.33;1.50;;;;;;;15.99;100.00;104460.34;4964544;28;20065;-67
2023/10/18 08:12:33;;;;;;;4.35;1.40;;;;;;;16.09;100.00;104467.44;5019319;28;20128;-68
2023/10/18 08:14:59;;;;;;;3.58;1.60;;;;;;;16.40;100.00;104534.03;5017388;28;20132;-68
2023/10/18 08:17:44;;;;;;;3.25;1.55;;;;;;;16.26;100.00;104342.75;5021210;28;20030;-68
2023/10/18 08:20:29;;;;;;;3.45;1.30;;;;;;;15.64;100.00;104217.47;5009504;28;20530;-74
2023/10/18 08:22:55;;;;;;;3.63;1.50;;;;;;;16.08;100.00;104182.34;5020806;28;20104;-68
2023/10/18 08:25:31;;;;;;;2.95;1.50;;;;;;;16.24;100.00;104184.34;5009848;28;20502;-68
2023/10/18 08:27:57;;;;;;;3.85;1.90;;;;;;;16.01;100.00;104103.47;5019688;28;20034;-69
2023/10/18 08:30:24;;;;;;;5.30;1.48;;;;;;;15.90;100.00;104066.50;5008726;28;20485;-68
2023/10/18 08:32:51;;;;;;;2.42;1.30;;;;;;;15.83;100.00;104051.81;5011979;28;20033;-68
2023/10/18 08:35:20;;;;;;;3.00;1.60;;;;;;;15.86;100.00;104021.09;5026201;28;20033;-69
2023/10/18 08:37:46;;;;;;;4.90;1.20;;;;;;;15.40;100.00;103937.34;5010758;28;20030;-68
2023/10/18 08:40:17;;;;;;;3.90;1.20;;;;;;;15.60;100.00;103934.31;5017977;28;20026;-68
2023/10/18 08:42:51;;;;;;;3.80;1.40;;;;;;;15.77;100.00;103902.91;5019587;28;20030;-68
2023/10/18 08:45:23;;;;;;;5.93;1.40;;;;;;;15.54;100.00;103835.84;5017733;28;20030;-68
2023/10/18 08:47:56;;;;;;;4.60;1.63;;;;;;;16.03;100.00;103870.69;5014671;28;20037;-68
2023/10/18 08:50:24;;;;;;;4.38;1.48;;;;;;;15.58;100.00;103773.47;5012065;28;20033;-68
2023/10/18 08:52:50;;;;;;;5.07;1.70;;;;;;;15.87;100.00;103832.84;5020689;28;20030;-68
2023/10/18 08:55:22;;;;;;;4.40;1.70;;;;;;;16.04;100.00;103846.78;5021988;28;20043;-70
2023/10/18 08:57:55;;;;;;;7.43;1.70;;;;;;;16.14;100.00;103856.31;5021649;28;20061;-68
2023/10/18 09:02:51;;;;;;;6.07;1.75;;;;;;;15.95;100.00;103836.38;5021684;28;20096;-69
2023/10/18 09:05:22;;;;;;;6.47;1.73;;;;;;;15.72;100.00;103777.09;5025760;28;20409;-68
2023/10/18 09:07:50;;;;;;;4.68;1.73;;;;;;;16.32;100.00;103838.53;5018099;28;20061;-68
2023/10/18 09:15:48;;;;;;;8.00;1.80;;;;;;;15.94;100.00;103773.91;5021056;28;20034;-68
2023/10/18 09:18:13;;;;;;;7.00;2.20;;;;;;;15.86;100.00;103747.31;5015942;28;20487;-68
2023/10/18 09:20:39;;;;;;;4.47;2.00;;;;;;;16.20;100.00;103767.31;5016811;28;20053;-67
2023/10/18 09:23:05;;;;;;;6.03;1.80;;;;;;;15.85;100.00;103676.28;5008907;28;20038;-68
2023/10/18 09:25:50;;;;;;;6.40;1.80;;;;;;;16.35;100.00;103698.13;5009436;28;20029;-68
2023/10/18 09:28:21;;;;;;;9.55;2.83;;;;;;;16.42;100.00;103432.72;5017431;28;20040;-69
2023/10/18 09:30:46;;;;;;;8.07;1.60;;;;;;;16.41;100.00;103386.47;5017053;28;20125;-69
2023/10/18 09:33:13;;;;;;;6.75;1.67;;;;;;;16.35;100.00;103402.75;5009978;28;20147;-69
2023/10/18 09:35:39;;;;;;;3.25;1.30;;;;;;;16.11;100.00;103328.19;5012748;28;20064;-71
2023/10/18 09:38:08;;;;;;;3.78;1.42;;;;;;;16.03;100.00;103160.44;5025164;28;20082;-69
2023/10/18 09:40:36;;;;;;;10.00;2.10;;;;;;;16.30;100.00;102995.25;5008173;28;20030;-69
2023/10/18 09:43:02;;;;;;;6.85;1.98;;;;;;;16.44;100.00;102967.78;5009408;28;20057;-68
2023/10/18 09:45:28;;;;;;;4.57;1.10;;;;;;;16.24;100.00;102949.88;5021884;28;20066;-69
2023/10/18 09:48:04;;;;;;;3.63;1.40;;;;;;;15.92;100.00;102867.00;5016364;28;20025;-69
2023/10/18 09:50:36;;;;;;;4.82;1.23;;;;;;;16.35;100.00;102939.56;5014626;28;20036;-69
2023/10/18 09:53:05;;;;;;;4.72;1.30;;;;;;;16.57;100.00;102933.50;5008733;28;20114;-69
2023/10/18 09:55:33;;;;;;;5.05;1.52;;;;;;;16.36;100.00;102879.66;5020564;28;20033;-68
2023/10/18 09:58:12;;;;;;;5.10;1.48;;;;;;;16.15;100.00;102813.00;5015684;28;20504;-68
2023/10/18 10:00:42;;;;;;;5.32;1.90;;;;;;;16.35;100.00;102806.03;5008534;28;20065;-67
2023/10/18 10:03:09;;;;;;;6.97;1.50;;;;;;;16.28;100.00;102791.53;5018235;28;20509;-68
2023/10/18 10:05:41;;;;;;;6.43;1.40;;;;;;;16.54;100.00;102806.81;5021919;28;20037;-68
2023/10/18 10:08:07;;;;;;;4.30;1.67;;;;;;;16.56;100.00;102743.44;5016311;28;20522;-68
2023/10/18 10:10:45;;;;;;;6.30;1.90;;;;;;;16.29;100.00;102682.81;5007666;28;20416;-68
2023/10/18 10:13:18;;;;;;;4.07;1.35;;;;;;;16.56;100.00;102721.13;5016676;28;20045;-67
2023/10/18 10:15:54;;;;;;;3.63;1.45;;;;;;;17.02;100.00;102703.56;5023799;28;20025;-67
2023/10/18 10:18:23;;;;;;;4.55;1.40;;;;;;;16.84;100.00;102676.34;5021974;28;20029;-68
2023/10/18 10:20:50;;;;;;;2.90;1.20;;;;;;;16.96;100.00;102621.38;5020082;28;20021;-68
2023/10/18 10:23:17;;;;;;;6.07;1.73;;;;;;;16.57;100.00;102495.94;5022548;28;20513;-68
2023/10/18 10:26:15;;;;;;;7.38;2.05;;;;;;;17.01;100.00;102533.06;5019385;28;20036;-68
2023/10/18 10:31:59;;;;;;;5.45;1.10;;;;;;;17.03;100.00;102468.78;5016692;28;20033;-68
2023/10/18 10:34:27;;;;;;;3.85;1.52;;;;;;;17.17;100.00;102431.69;5010186;28;20083;-68
2023/10/18 10:37:18;;;;;;;4.40;1.50;;;;;;;17.04;100.00;102393.34;5021686;28;20026;-69
2023/10/18 10:39:45;;;;;;;5.25;1.45;;;;;;;17.43;100.00;102382.38;5007628;28;20033;-68
2023/10/18 10:42:43;;;;;;;3.97;1.85;;;;;;;17.21;100.00;102286.75;5008352;28;20069;-68
2023/10/18 10:45:31;;;;;;;2.78;1.10;;;;;;;17.14;100.00;102279.19;5015524;28;20436;-68
2023/10/18 10:47:57;;;;;;;3.50;1.30;;;;;;;17.43;100.00;102273.53;5019425;28;20041;-68
2023/10/18 10:50:45;;;;;;;4.15;1.30;;;;;;;17.20;100.00;102223.38;5012501;28;20037;-68
2023/10/18 10:53:15;;;;;;;2.38;1.08;;;;;;;16.99;100.00;102156.09;5006942;28;20041;-67
2023/10/18 10:55:43;;;;;;;2.72;1.17;;;;;;;17.19;100.00;102195.94;5010841;28;20113;-67
2023/10/18 10:58:16;;;;;;;2.33;1.00;;;;;;;17.15;100.00;102175.50;5017868;28;20029;-68
2023/10/18 11:01:31;;;;;;;3.22;1.10;;;;;;;17.09;100.00;102144.75;5017591;28;20159;-68
2023/10/18 11:03:58;;;;;;;4.32;1.52;;;;;;;16.42;100.00;102043.25;4909023;29;20039;-68
2023/10/18 11:06:32;;;;;;;3.63;1.33;;;;;;;16.78;100.00;102079.41;5006154;28;20095;-68
2023/10/18 11:08:58;;;;;;;3.60;1.35;;;;;;;17.01;100.00;102098.66;5007062;28;20468;-68
2023/10/18 11:11:27;;;;;;;6.45;1.63;;;;;;;17.51;100.00;102107.88;5017461;28;20037;-68
2023/10/18 11:13:53;;;;;;;5.28;1.50;;;;;;;16.89;100.00;101996.09;5003136;28;20100;-69
2023/10/18 11:16:22;;;;;;;3.00;0.73;;;;;;;17.30;100.00;102064.59;5007790;28;20034;-68
2023/10/18 11:18:52;;;;;;;3.65;1.05;;;;;;;17.36;100.00;102061.88;5007839;28;20528;-68
2023/10/18 11:21:19;;;;;;;4.43;1.20;;;;;;;17.16;100.00;101980.06;5005699;28;20034;-68
2023/10/18 11:24:02;;;;;;;4.45;1.30;;;;;;;17.48;100.00;102015.31;5007187;28;20037;-68
2023/10/18 11:26:28;;;;;;;3.88;1.30;;;;;;;17.06;100.00;101950.31;5007438;28;20045;-68
2023/10/18 11:29:05;;;;;;;2.20;1.10;;;;;;;16.88;100.00;101889.03;5007152;28;20033;-68
2023/10/18 11:31:31;;;;;;;3.85;1.00;;;;;;;17.44;100.00;101921.09;5007117;28;20102;-68
2023/10/18 11:34:04;;;;;;;3.50;1.30;;;;;;;17.71;100.00;101978.75;5005464;28;20057;-67
2023/10/18 11:36:32;;;;;;;3.35;1.30;;;;;;;17.96;100.00;101959.25;5005629;28;20073;-68
2023/10/18 11:39:08;;;;;;;3.03;0.93;;;;;;;17.48;100.00;101876.41;5007451;28;20030;-68
2023/10/18 11:41:34;;;;;;;4.57;1.20;;;;;;;18.12;100.00;101916.75;5007212;28;20037;-68
2023/10/18 11:44:07;;;;;;;4.22;1.50;;;;;;;18.15;100.00;101852.28;5004168;28;20038;-68
2023/10/18 11:46:56;;;;;;;6.25;1.55;;;;;;;18.01;100.00;101864.69;5007492;28;20028;-68
2023/10/18 11:49:22;;;;;;;3.92;1.05;;;;;;;18.14;100.00;101841.13;5010901;28;20033;-68
2023/10/18 11:51:51;;;;;;;4.30;1.20;;;;;;;18.05;100.00;101818.22;5011204;28;20041;-68
2023/10/18 11:54:47;;;;;;;4.28;1.17;;;;;;;18.07;100.00;101805.31;5011112;28;20079;-68
2023/10/18 11:57:41;;;;;;;4.35;1.55;;;;;;;17.75;100.00;101734.19;5002371;28;20496;-68
2023/10/18 12:02:48;;;;;;;3.05;0.93;;;;;;;18.31;100.00;101753.06;5009916;28;20146;-68
2023/10/18 12:05:23;;;;;;;4.32;1.17;;;;;;;18.19;100.00;101727.69;5010302;28;20544;-68
2023/10/18 12:07:49;;;;;;;2.20;0.80;;;;;;;17.69;100.00;101659.75;5009102;28;20037;-69
2023/10/18 12:10:25;;;;;;;1.88;0.80;;;;;;;18.00;100.00;101696.56;5011120;28;20034;-68